createdAt,value
2023-02-04T00:00:12.640Z,17.85
2023-02-04T00:02:40.533Z,23.95
2023-02-04T00:05:08.100Z,23.95
2023-02-04T00:07:35.006Z,23.95
2023-02-04T00:10:02.575Z,19.67
2023-02-04T00:12:29.487Z,21.23
2023-02-04T00:14:56.121Z,20.55
2023-02-04T00:17:22.800Z,29.40
2023-02-04T00:19:49.507Z,20.52
2023-02-04T00:22:17.355Z,26.42
2023-02-04T00:24:48.367Z,25.75
2023-02-04T00:27:15.414Z,32.15
2023-02-04T00:29:42.282Z,27.33
2023-02-04T00:32:09.089Z,25.02
2023-02-04T00:34:35.877Z,31.25
2023-02-04T00:37:03.074Z,16.48
2023-02-04T00:39:29.762Z,28.58
2023-02-04T00:41:56.445Z,26.45
2023-02-04T00:44:23.166Z,32.05
2023-02-04T00:46:50.039Z,20.17
2023-02-04T00:49:16.702Z,24.63
2023-02-04T00:51:46.674Z,20.08
2023-02-04T00:54:15.741Z,23.27
2023-02-04T00:56:43.176Z,23.98
2023-02-04T00:59:10.455Z,36.95
2023-02-04T01:01:37.713Z,23.15
2023-02-04T01:04:04.757Z,23.55
2023-02-04T01:06:31.842Z,17.52
2023-02-04T01:08:58.554Z,22.58
2023-02-04T01:11:25.556Z,27.27
2023-02-04T01:13:52.191Z,24.50
2023-02-04T01:16:19.369Z,15.02
2023-02-04T01:18:46.168Z,30.15
2023-02-04T01:21:13.168Z,20.45
2023-02-04T01:23:39.936Z,20.77
2023-02-04T01:26:08.120Z,26.77
2023-02-04T01:28:34.846Z,21.35
2023-02-04T01:31:01.649Z,22.13
2023-02-04T01:33:28.322Z,22.05
2023-02-04T01:35:55.068Z,21.10
2023-02-04T01:38:21.972Z,27.17
2023-02-04T01:40:48.679Z,25.08
2023-02-04T01:43:17.757Z,34.78
2023-02-04T01:45:46.296Z,21.77
2023-02-04T01:48:14.117Z,20.33
2023-02-04T01:50:40.967Z,26.08
2023-02-04T01:53:07.828Z,16.55
2023-02-04T01:55:34.633Z,31.75
2023-02-04T01:58:03.035Z,20.80
2023-02-04T02:00:32.755Z,17.85
2023-02-04T02:03:00.296Z,18.98
2023-02-04T02:05:39.176Z,22.40
2023-02-04T02:08:07.420Z,26.70
2023-02-04T02:10:35.875Z,18.27
2023-02-04T02:13:04.244Z,27.27
2023-02-04T02:15:31.126Z,25.80
2023-02-04T02:17:57.900Z,25.35
2023-02-04T02:20:26.379Z,24.05
2023-02-04T02:23:03.754Z,24.17
2023-02-04T02:25:31.000Z,34.85
2023-02-04T02:27:59.292Z,31.20
2023-02-04T02:30:28.047Z,23.25
2023-02-04T02:32:55.397Z,31.05
2023-02-04T02:35:22.752Z,21.70
2023-02-04T02:37:49.778Z,21.73
2023-02-04T02:40:16.678Z,21.67
2023-02-04T02:42:45.313Z,19.83
2023-02-04T02:45:24.027Z,22.52
2023-02-04T02:47:51.498Z,20.75
2023-02-04T02:50:22.197Z,22.67
2023-02-04T02:52:48.915Z,18.70
2023-02-04T02:55:19.055Z,27.98
2023-02-04T02:57:47.792Z,19.55
2023-02-04T03:00:32.863Z,28.00
2023-02-04T03:03:07.531Z,24.55
2023-02-04T03:05:38.450Z,26.58
2023-02-04T03:08:05.750Z,18.85
2023-02-04T03:10:32.734Z,27.23
2023-02-04T03:13:00.015Z,19.45
2023-02-04T03:15:27.077Z,26.35
2023-02-04T03:17:56.466Z,32.42
2023-02-04T03:20:26.688Z,20.58
2023-02-04T03:22:54.670Z,24.02
2023-02-04T03:25:24.415Z,23.45
2023-02-04T03:27:54.018Z,29.05
2023-02-04T03:30:21.965Z,26.55
2023-02-04T03:32:48.902Z,28.92
2023-02-04T03:35:15.729Z,29.75
2023-02-04T03:37:42.444Z,23.65
2023-02-04T03:40:10.032Z,21.90
2023-02-04T03:42:36.755Z,19.70
2023-02-04T03:45:04.156Z,24.40
2023-02-04T03:47:30.874Z,27.10
2023-02-04T03:49:57.601Z,29.35
2023-02-04T03:52:24.293Z,20.77
2023-02-04T03:54:50.905Z,16.35
2023-02-04T03:57:17.916Z,24.75
2023-02-04T03:59:44.746Z,24.60
2023-02-04T04:02:11.422Z,20.83
2023-02-04T04:04:38.132Z,19.52
2023-02-04T04:07:04.865Z,28.73
2023-02-04T04:09:31.488Z,25.65
2023-02-04T04:11:58.167Z,30.33
2023-02-04T04:14:24.812Z,30.40
2023-02-04T04:16:51.452Z,25.85
2023-02-04T04:19:18.077Z,29.75
2023-02-04T04:21:44.713Z,26.08
2023-02-04T04:24:11.344Z,27.67
2023-02-04T04:26:38.019Z,19.33
2023-02-04T04:29:04.639Z,26.90
2023-02-04T04:31:31.397Z,24.48
2023-02-04T04:33:58.115Z,29.73
2023-02-04T04:36:24.804Z,25.20
2023-02-04T04:38:51.444Z,18.67
2023-02-04T04:41:18.145Z,22.30
2023-02-04T04:43:44.744Z,26.48
2023-02-04T04:46:11.403Z,24.27
2023-02-04T04:48:38.205Z,23.27
2023-02-04T04:51:05.088Z,29.05
2023-02-04T04:53:31.728Z,19.05
2023-02-04T04:55:58.359Z,25.55
2023-02-04T04:58:25.093Z,32.42
2023-02-04T05:00:51.926Z,24.65
2023-02-04T05:03:18.689Z,18.67
2023-02-04T05:05:45.292Z,16.63
2023-02-04T05:08:13.996Z,22.45
2023-02-04T05:10:41.125Z,23.50
2023-02-04T05:13:07.936Z,20.90
2023-02-04T05:15:34.822Z,24.23
2023-02-04T05:18:02.064Z,32.45
2023-02-04T05:20:28.724Z,29.60
2023-02-04T05:22:56.042Z,28.15
2023-02-04T05:25:23.345Z,25.80
2023-02-04T05:27:50.109Z,21.30
2023-02-04T05:30:16.918Z,25.50
2023-02-04T05:32:43.589Z,30.95
2023-02-04T05:35:10.506Z,35.90
2023-02-04T05:37:37.201Z,24.48
2023-02-04T05:40:04.194Z,18.75
2023-02-04T05:42:30.895Z,29.83
2023-02-04T05:44:57.624Z,22.48
2023-02-04T05:47:24.458Z,26.02
2023-02-04T05:49:51.093Z,31.08
2023-02-04T05:52:17.781Z,25.38
2023-02-04T05:54:44.385Z,20.98
2023-02-04T05:57:11.111Z,22.60
2023-02-04T05:59:37.788Z,36.97
2023-02-04T06:02:04.514Z,31.90
2023-02-04T06:04:31.182Z,21.20
2023-02-04T06:06:57.824Z,30.15
2023-02-04T06:09:24.535Z,24.98
2023-02-04T06:11:51.268Z,23.48
2023-02-04T06:14:17.881Z,36.72
2023-02-04T06:16:44.543Z,22.67
2023-02-04T06:19:11.213Z,30.92
2023-02-04T06:21:37.839Z,25.35
2023-02-04T06:24:05.537Z,22.90
2023-02-04T06:26:32.205Z,43.95
2023-02-04T06:28:58.813Z,40.35
2023-02-04T06:31:25.536Z,29.30
2023-02-04T06:33:52.353Z,38.40
2023-02-04T06:36:19.115Z,26.52
2023-02-04T06:38:45.788Z,31.83
2023-02-04T06:41:12.428Z,28.23
2023-02-04T06:43:39.110Z,35.85
2023-02-04T06:46:06.063Z,19.00
2023-02-04T06:48:32.802Z,37.13
2023-02-04T06:50:59.467Z,29.80
2023-02-04T06:53:26.363Z,29.35
2023-02-04T06:55:53.115Z,26.20
2023-02-04T06:58:19.796Z,29.95
2023-02-04T07:00:46.548Z,23.40
2023-02-04T07:03:13.170Z,19.50
2023-02-04T07:05:39.842Z,29.00
2023-02-04T07:08:06.494Z,29.30
2023-02-04T07:10:33.547Z,32.78
2023-02-04T07:13:00.556Z,25.45
2023-02-04T07:15:27.254Z,24.67
2023-02-04T07:17:54.135Z,25.65
2023-02-04T07:20:20.886Z,27.55
2023-02-04T07:22:47.520Z,33.10
2023-02-04T07:25:15.947Z,28.42
2023-02-04T07:27:42.694Z,28.13
2023-02-04T07:30:10.878Z,29.55
2023-02-04T07:32:37.552Z,32.88
2023-02-04T07:35:04.689Z,34.25
2023-02-04T07:37:31.360Z,31.98
2023-02-04T07:39:58.049Z,30.35
2023-02-04T07:42:24.821Z,34.35
2023-02-04T07:44:59.424Z,25.95
2023-02-04T07:47:26.100Z,25.85
2023-02-04T07:49:54.558Z,29.20
2023-02-04T07:52:21.256Z,32.15
2023-02-04T07:54:47.934Z,16.80
2023-02-04T07:57:14.768Z,20.42
2023-02-04T07:59:41.381Z,21.25
2023-02-04T08:02:09.406Z,34.92
2023-02-04T08:04:36.074Z,34.70
2023-02-04T08:07:02.842Z,30.75
2023-02-04T08:09:29.625Z,36.45
2023-02-04T08:11:56.343Z,23.85
2023-02-04T08:14:23.074Z,24.70
2023-02-04T08:16:49.740Z,31.00
2023-02-04T08:19:19.040Z,30.45
2023-02-04T08:21:46.200Z,27.42
2023-02-04T08:24:13.833Z,36.17
2023-02-04T08:26:42.164Z,28.17
2023-02-04T08:29:09.814Z,28.98
2023-02-04T08:31:37.680Z,19.80
2023-02-04T08:34:05.714Z,22.83
2023-02-04T08:36:32.769Z,21.25
2023-02-04T08:38:59.491Z,25.90
2023-02-04T08:41:26.186Z,17.58
2023-02-04T08:43:53.044Z,17.67
2023-02-04T08:46:19.726Z,18.55
2023-02-04T08:48:46.394Z,12.55
2023-02-04T08:51:13.189Z,10.70
2023-02-04T08:53:40.688Z,13.75
2023-02-04T08:56:08.868Z,12.18
2023-02-04T08:58:35.609Z,8.57
2023-02-04T09:01:02.807Z,9.77
2023-02-04T09:03:29.671Z,8.70
2023-02-04T09:05:56.412Z,6.97
2023-02-04T09:08:23.062Z,4.35
2023-02-04T09:10:49.846Z,8.88
2023-02-04T09:13:16.491Z,8.40
2023-02-04T09:15:43.210Z,7.10
2023-02-04T09:18:21.890Z,3.58
2023-02-04T09:20:49.323Z,8.35
2023-02-04T09:23:16.229Z,5.85
2023-02-04T09:25:44.639Z,11.48
2023-02-04T09:28:13.190Z,5.28
2023-02-04T09:30:41.697Z,6.82
2023-02-04T09:33:09.997Z,11.15
2023-02-04T09:35:37.627Z,5.00
2023-02-04T09:38:04.894Z,11.50
2023-02-04T09:40:34.793Z,9.38
2023-02-04T09:43:03.294Z,13.00
2023-02-04T09:45:34.290Z,8.40
2023-02-04T09:48:04.855Z,9.27
2023-02-04T09:50:32.689Z,4.20
2023-02-04T09:53:04.075Z,10.82
2023-02-04T09:55:37.383Z,6.32
2023-02-04T09:58:12.060Z,14.32
2023-02-04T10:00:38.877Z,5.05
2023-02-04T10:03:16.971Z,5.60
2023-02-04T10:05:45.091Z,10.65
2023-02-04T10:08:15.933Z,7.57
2023-02-04T10:10:44.257Z,9.05
2023-02-04T10:13:17.978Z,8.68
2023-02-04T10:15:46.022Z,7.25
2023-02-04T10:18:35.983Z,6.00
2023-02-04T10:21:21.520Z,6.90
2023-02-04T10:23:51.688Z,8.73
2023-02-04T10:26:18.660Z,14.52
2023-02-04T10:28:45.983Z,10.77
2023-02-04T10:31:39.169Z,8.85
2023-02-04T10:34:37.669Z,7.60
2023-02-04T10:37:19.030Z,11.30
2023-02-04T10:39:46.639Z,11.55
2023-02-04T10:42:29.961Z,9.73
2023-02-04T10:44:57.756Z,15.38
2023-02-04T10:47:27.109Z,12.23
2023-02-04T10:49:57.393Z,19.23
2023-02-04T10:52:32.993Z,13.75
2023-02-04T10:55:00.442Z,6.63
2023-02-04T10:57:29.640Z,11.00
2023-02-04T11:00:00.033Z,10.65
2023-02-04T11:02:53.206Z,7.68
2023-02-04T11:05:23.368Z,13.60
2023-02-04T11:07:50.896Z,11.35
2023-02-04T11:10:21.610Z,11.52
2023-02-04T11:12:54.325Z,12.98
2023-02-04T11:16:02.704Z,11.10
2023-02-04T11:18:30.206Z,12.88
2023-02-04T11:20:58.938Z,13.30
2023-02-04T11:23:29.970Z,9.93
2023-02-04T11:26:08.758Z,10.80
2023-02-04T11:28:54.849Z,10.68
2023-02-04T11:31:21.652Z,10.63
2023-02-04T11:33:50.723Z,10.55
2023-02-04T11:36:17.870Z,18.58
2023-02-04T11:38:49.817Z,10.75
2023-02-04T11:41:27.174Z,8.35
2023-02-04T11:43:55.401Z,12.35
2023-02-04T11:46:23.825Z,12.82
2023-02-04T11:48:58.117Z,9.55
2023-02-04T11:51:30.415Z,10.75
2023-02-04T11:53:57.093Z,10.20
2023-02-04T11:56:24.069Z,12.65
2023-02-04T11:58:51.000Z,17.25
2023-02-04T12:01:20.924Z,11.82
2023-02-04T12:03:50.239Z,10.52
2023-02-04T12:06:24.536Z,14.15
2023-02-04T12:08:51.246Z,14.52
2023-02-04T12:11:32.029Z,14.57
2023-02-04T12:14:07.578Z,16.23
2023-02-04T12:17:01.039Z,14.30
2023-02-04T12:19:28.314Z,16.38
2023-02-04T12:21:55.796Z,14.95
2023-02-04T12:24:22.737Z,14.10
2023-02-04T12:26:49.719Z,14.77
2023-02-04T12:29:16.337Z,14.35
2023-02-04T12:31:43.117Z,11.68
2023-02-04T12:34:09.849Z,19.15
2023-02-04T12:36:36.532Z,17.30
2023-02-04T12:39:03.570Z,14.32
2023-02-04T12:41:30.379Z,13.70
2023-02-04T12:43:56.999Z,23.65
2023-02-04T12:46:23.850Z,14.68
2023-02-04T12:48:50.839Z,9.30
2023-02-04T12:51:17.637Z,13.60
2023-02-04T12:53:44.349Z,12.38
2023-02-04T12:56:11.070Z,12.25
2023-02-04T12:58:37.759Z,6.43
2023-02-04T13:01:05.068Z,12.30
2023-02-04T13:03:32.756Z,12.57
2023-02-04T13:05:59.932Z,7.25
2023-02-04T13:08:26.612Z,15.02
2023-02-04T13:10:53.602Z,8.73
2023-02-04T13:13:22.125Z,12.13
2023-02-04T13:15:48.881Z,9.93
2023-02-04T13:18:17.458Z,10.43
2023-02-04T13:20:45.905Z,10.02
2023-02-04T13:23:12.935Z,17.27
2023-02-04T13:25:39.619Z,9.98
2023-02-04T13:28:06.307Z,8.57
2023-02-04T13:30:33.085Z,11.00
2023-02-04T13:32:59.870Z,10.95
2023-02-04T13:35:26.605Z,7.75
2023-02-04T13:37:54.801Z,11.73
2023-02-04T13:40:22.349Z,16.52
2023-02-04T13:42:48.953Z,10.68
2023-02-04T13:45:16.784Z,11.68
2023-02-04T13:47:43.554Z,13.13
2023-02-04T13:50:10.369Z,11.23
2023-02-04T13:52:37.033Z,5.65
2023-02-04T13:55:03.746Z,11.40
2023-02-04T13:57:31.372Z,10.02
2023-02-04T13:59:58.074Z,13.90
2023-02-04T14:02:25.178Z,13.70
2023-02-04T14:04:51.996Z,9.70
2023-02-04T14:07:18.733Z,13.13
2023-02-04T14:09:48.070Z,7.45
2023-02-04T14:12:15.405Z,9.93
2023-02-04T14:14:42.094Z,8.43
2023-02-04T14:17:08.868Z,10.23
2023-02-04T14:19:35.519Z,11.00
2023-02-04T14:22:02.808Z,9.95
2023-02-04T14:24:29.550Z,7.47
2023-02-04T14:26:56.226Z,13.57
2023-02-04T14:29:23.029Z,10.98
2023-02-04T14:31:49.757Z,8.88
2023-02-04T14:34:16.497Z,10.80
2023-02-04T14:36:43.185Z,9.55
2023-02-04T14:39:09.887Z,10.20
2023-02-04T14:41:36.583Z,12.35
2023-02-04T14:44:03.296Z,9.20
2023-02-04T14:46:29.990Z,13.25
2023-02-04T14:48:56.685Z,10.52
2023-02-04T14:51:23.354Z,8.40
2023-02-04T14:53:49.996Z,13.70
2023-02-04T14:56:17.075Z,11.43
2023-02-04T14:58:43.745Z,10.63
2023-02-04T15:01:10.476Z,13.75
2023-02-04T15:03:37.161Z,6.78
2023-02-04T15:06:04.380Z,14.10
2023-02-04T15:08:32.721Z,9.40
2023-02-04T15:10:59.406Z,8.40
2023-02-04T15:13:27.819Z,9.18
2023-02-04T15:15:54.453Z,12.98
2023-02-04T15:18:21.229Z,13.10
2023-02-04T15:20:48.422Z,13.23
2023-02-04T15:23:15.101Z,9.25
2023-02-04T15:25:41.807Z,9.95
2023-02-04T15:28:10.921Z,11.57
2023-02-04T15:30:38.928Z,9.52
2023-02-04T15:33:05.717Z,7.35
2023-02-04T15:35:32.517Z,9.82
2023-02-04T15:37:59.270Z,11.00
2023-02-04T15:40:29.853Z,11.85
2023-02-04T15:42:56.550Z,14.57
2023-02-04T15:45:23.242Z,16.60
2023-02-04T15:47:50.494Z,11.70
2023-02-04T15:50:17.555Z,11.43
2023-02-04T15:52:44.185Z,7.05
2023-02-04T15:55:10.959Z,10.00
2023-02-04T15:57:38.436Z,11.18
2023-02-04T16:00:06.347Z,10.02
2023-02-04T16:02:33.236Z,13.00
2023-02-04T16:05:00.199Z,10.60
2023-02-04T16:07:26.927Z,9.68
2023-02-04T16:09:53.616Z,10.52
2023-02-04T16:12:20.307Z,14.90
2023-02-04T16:14:47.020Z,8.98
2023-02-04T16:17:13.648Z,11.02
2023-02-04T16:19:40.365Z,7.45
2023-02-04T16:22:07.563Z,13.60
2023-02-04T16:24:34.716Z,58.90
2023-02-04T16:27:01.480Z,7.30
2023-02-04T16:29:28.164Z,8.00
2023-02-04T16:31:56.861Z,12.13
2023-02-04T16:34:24.398Z,12.70
2023-02-04T16:36:51.029Z,13.70
2023-02-04T16:39:17.911Z,17.05
2023-02-04T16:41:44.555Z,15.18
2023-02-04T16:44:11.472Z,12.23
2023-02-04T16:46:38.211Z,13.15
2023-02-04T16:49:05.046Z,14.10
2023-02-04T16:51:31.770Z,12.50
2023-02-04T16:53:58.414Z,9.93
2023-02-04T16:56:26.993Z,11.00
2023-02-04T16:58:53.668Z,11.40
2023-02-04T17:01:20.378Z,10.38
2023-02-04T17:03:47.032Z,13.20
2023-02-04T17:06:16.385Z,12.40
2023-02-04T17:08:43.288Z,11.88
2023-02-04T17:11:28.685Z,10.07
2023-02-04T17:13:59.950Z,9.50
2023-02-04T17:16:27.227Z,9.65
2023-02-04T17:18:55.117Z,11.13
2023-02-04T17:21:23.421Z,9.75
2023-02-04T17:23:50.361Z,9.27
2023-02-04T17:26:17.763Z,11.23
2023-02-04T17:28:45.120Z,13.27
2023-02-04T17:31:11.901Z,12.43
2023-02-04T17:33:38.802Z,9.45
2023-02-04T17:36:05.953Z,8.98
2023-02-04T17:38:32.826Z,8.70
2023-02-04T17:41:01.012Z,7.18
2023-02-04T17:43:28.033Z,9.63
2023-02-04T17:45:54.738Z,10.43
2023-02-04T17:48:21.437Z,11.73
2023-02-04T17:50:48.117Z,16.45
2023-02-04T17:53:14.755Z,7.13
2023-02-04T17:55:41.409Z,14.50
2023-02-04T17:58:27.169Z,8.95
2023-02-04T18:00:57.598Z,11.00
2023-02-04T18:03:27.210Z,18.70
2023-02-04T18:05:56.674Z,15.30
2023-02-04T18:08:27.152Z,17.23
2023-02-04T18:10:55.576Z,14.93
2023-02-04T18:13:31.614Z,11.05
2023-02-04T18:16:00.719Z,15.25
2023-02-04T18:18:38.499Z,16.42
2023-02-04T18:21:28.261Z,18.52
2023-02-04T18:24:04.936Z,16.88
2023-02-04T18:26:32.989Z,14.30
2023-02-04T18:29:00.261Z,14.75
2023-02-04T18:31:34.947Z,12.32
2023-02-04T18:34:10.599Z,15.40
2023-02-04T18:36:37.711Z,13.32
2023-02-04T18:39:16.863Z,13.07
2023-02-04T18:41:45.318Z,12.48
2023-02-04T18:44:25.695Z,14.57
2023-02-04T18:46:53.353Z,11.05
2023-02-04T18:49:37.175Z,11.13
2023-02-04T18:52:21.311Z,11.15
2023-02-04T18:54:53.514Z,16.70
2023-02-04T18:57:28.978Z,23.48
2023-02-04T19:00:20.950Z,49.78
2023-02-04T19:03:23.119Z,60.80
2023-02-04T19:05:50.764Z,55.50
2023-02-04T19:08:25.054Z,54.70
2023-02-04T19:10:53.910Z,41.53
2023-02-04T19:13:41.785Z,35.63
2023-02-04T19:16:26.706Z,33.53
2023-02-04T19:18:54.818Z,27.42
2023-02-04T19:21:28.445Z,27.92
2023-02-04T19:24:01.557Z,19.05
2023-02-04T19:26:56.228Z,18.70
2023-02-04T19:29:23.179Z,14.05
2023-02-04T19:31:52.231Z,13.85
2023-02-04T19:34:24.176Z,11.82
2023-02-04T19:36:50.942Z,13.10
2023-02-04T19:39:41.566Z,13.55
2023-02-04T19:42:34.508Z,14.02
2023-02-04T19:45:17.924Z,9.65
2023-02-04T19:47:45.183Z,8.15
2023-02-04T19:50:20.705Z,10.13
2023-02-04T19:52:54.265Z,7.95
2023-02-04T19:55:35.089Z,6.85
2023-02-04T19:58:27.856Z,6.43
2023-02-04T20:01:12.070Z,7.47
2023-02-04T20:03:44.517Z,6.78
2023-02-04T20:06:27.444Z,7.72
2023-02-04T20:09:15.505Z,11.90
2023-02-04T20:11:51.458Z,7.47
2023-02-04T20:14:23.228Z,7.00
2023-02-04T20:17:10.187Z,7.28
2023-02-04T20:19:38.051Z,6.78
2023-02-04T20:22:17.996Z,42.97
2023-02-04T20:24:46.912Z,16.85
2023-02-04T20:27:25.693Z,12.65
2023-02-04T20:30:11.705Z,8.50
2023-02-04T20:32:44.660Z,9.02
2023-02-04T20:35:14.488Z,7.63
2023-02-04T20:37:42.636Z,11.48
2023-02-04T20:40:26.541Z,9.15
2023-02-04T20:42:59.863Z,8.65
2023-02-04T20:45:26.686Z,8.48
2023-02-04T20:47:58.845Z,11.32
2023-02-04T20:50:44.806Z,8.38
2023-02-04T20:53:32.354Z,6.63
2023-02-04T20:56:10.969Z,8.45
2023-02-04T20:58:41.326Z,7.30
2023-02-04T21:01:19.797Z,6.05
2023-02-04T21:03:47.427Z,8.93
2023-02-04T21:06:32.121Z,9.35
2023-02-04T21:09:00.264Z,7.30
2023-02-04T21:11:27.120Z,9.63
2023-02-04T21:13:54.776Z,9.95
2023-02-04T21:16:22.117Z,8.68
2023-02-04T21:18:49.045Z,9.27
2023-02-04T21:21:16.059Z,9.50
2023-02-04T21:23:42.900Z,6.75
2023-02-04T21:26:09.642Z,9.82
2023-02-04T21:28:36.481Z,10.20
2023-02-04T21:31:04.023Z,14.20
2023-02-04T21:33:31.000Z,14.00
2023-02-04T21:35:57.757Z,13.73
2023-02-04T21:38:24.571Z,12.48
2023-02-04T21:40:51.476Z,12.00
2023-02-04T21:43:18.352Z,14.25
2023-02-04T21:45:45.164Z,11.27
2023-02-04T21:48:12.098Z,8.10
2023-02-04T21:50:39.224Z,9.02
2023-02-04T21:53:08.244Z,9.18
2023-02-04T21:55:35.968Z,10.40
2023-02-04T21:58:03.399Z,9.00
2023-02-04T22:00:30.225Z,12.02
2023-02-04T22:02:57.060Z,10.20
2023-02-04T22:05:24.351Z,9.65
2023-02-04T22:07:51.875Z,11.85
2023-02-04T22:10:22.527Z,6.53
2023-02-04T22:12:49.634Z,8.68
2023-02-04T22:15:24.054Z,7.45
2023-02-04T22:17:52.425Z,10.00
2023-02-04T22:20:20.434Z,9.48
2023-02-04T22:22:48.210Z,9.20
2023-02-04T22:25:16.969Z,7.70
2023-02-04T22:27:44.224Z,8.50
2023-02-04T22:30:13.157Z,9.07
2023-02-04T22:32:40.278Z,10.98
2023-02-04T22:35:10.021Z,10.05
2023-02-04T22:37:41.411Z,12.98
2023-02-04T22:40:10.694Z,14.35
2023-02-04T22:42:37.730Z,9.82
2023-02-04T22:45:05.134Z,11.02
2023-02-04T22:47:32.181Z,8.85
2023-02-04T22:49:58.970Z,9.40
2023-02-04T22:52:26.050Z,12.90
2023-02-04T22:54:52.901Z,11.13
2023-02-04T22:57:19.621Z,12.30
2023-02-04T22:59:46.387Z,10.50
2023-02-04T23:02:13.229Z,9.15
2023-02-04T23:04:40.839Z,9.32
2023-02-04T23:07:08.438Z,11.48
2023-02-04T23:09:35.616Z,10.57
2023-02-04T23:12:12.733Z,8.65
2023-02-04T23:14:45.970Z,10.57
2023-02-04T23:17:14.663Z,8.80
2023-02-04T23:19:41.577Z,10.40
2023-02-04T23:22:10.490Z,9.82
2023-02-04T23:24:38.215Z,9.45
2023-02-04T23:27:05.657Z,8.38
2023-02-04T23:29:35.182Z,9.00
2023-02-04T23:32:03.783Z,9.68
2023-02-04T23:34:31.670Z,15.32
2023-02-04T23:36:58.672Z,10.73
2023-02-04T23:39:25.614Z,9.00
2023-02-04T23:41:52.431Z,15.90
2023-02-04T23:44:19.213Z,11.32
2023-02-04T23:46:46.001Z,10.43
2023-02-04T23:49:12.856Z,7.80
2023-02-04T23:51:39.992Z,8.48
2023-02-04T23:54:07.270Z,11.23
2023-02-04T23:56:34.526Z,9.23
2023-02-04T23:59:01.534Z,8.40
